LFOB/BVA METAR and TAF weather

Enter ICAO airport designator
Station Type Date Time Source
LFOB METAR 2024/07/13 03:30 UTC NOAA

LFOB 130330Z AUTO 28001KT 9999 2800 ///CB 12/12 Q1015 TEMPO 3000 BR BECMG SCT020


Station Type Date Time Source
LFOB Decoded METAR 2024/07/13 03:30 UTC NOAA

Beauvais, France (LFOB) 49-28N 002-07E 111M
Jul 12, 2024 - 11:30 PM EDT / 2024.07.13 0330 UTC
Wind: from the W (280 degrees) at 1 MPH (1 KT):0
Visibility: greater than 7 mile(s):0
Weather: Cumulonimbus clouds observed
Temperature: 53 F (12 C)
Dew Point: 53 F (12 C)
Relative Humidity: 100%
Pressure (altimeter): 29.97 in. Hg (1015 hPa)
ob: LFOB 130330Z AUTO 28001KT 9999 2800 ///CB 12/12 Q1015 TEMPO 3000 BR BECMG SCT020
cycle: 3

Station Type Date Time Source
LFOB TAF 2024/07/12 22:28 UTC NOAA